Airfield :
LOGIN :

Register | Disclaimer

   EN    FR    IT 

 










Legend :    VFR   Marginal VFR   IFR   Intensive IFR   Very Intensive IFR
Visi :
Ceiling :
>= 8 km
>= 3000ft
5 to 8 km
1000 to 3000 ft
1500m to 5 km
500 to 1000 ft
800 to 1500m
200 to 500 ft
< 800m
< 200 ft
Symbols :   Thunderstorms  Fog  Heavy snow  Heavy precipitations  Wind > 20 kt
SIGMETs :     Misc.  Thunderstorms  Icing  Turbulence  Mountain Waves  Volcanic Ashes






- Airport Elevation : 348 ft
- IATA code : LDV


LFRJ - Landivisiau

CURRENT METAR :
  • 070700Z AUTO 35008KT 9999 OVC007 17/16 Q1030 BECMG BKN012

EXPIRED METARs :
  • 070630Z AUTO 35008KT 320V020 9999 OVC005 16/15 Q1030 BECMG BKN012
  • 070600Z AUTO 34007KT 9999 OVC004 16/15 Q1029 BECMG BKN007
  • 070530Z AUTO 34009KT 9999 OVC005 16/15 Q1029 NOSIG
  • 070500Z AUTO 34009KT 9999 OVC005 15/15 Q1029
  • 070430Z AUTO 34008KT 310V010 9999 BKN005 OVC032 15/15 Q1029

TAF TAF LFRJ
Valid from the 07 at 06:00 until the 07 at 15:00 UTC


070500Z 0706/0715 34009KT 9999 OVC005
BECMG 0706/0708 BKN007
BECMG 0708/0711 BKN012
BECMG 0711/0713 BKN016



MET'MAP, your aeronautical weather chart ! - Copyright ORBIFLY December 2007 - Disclaimer

ORBIFLY MET'MAP TEAM :

Programming & Development : Alexandra Zaïnal
Original concept : Baudouin d'Aumeries
Technical & hardware support : Manuel Goepfert
Assistance : Marc-Olivier Méhu




SOURCES & CREDITS :

   NOAA